createdAt,value
2022-11-29T00:02:35.033Z,1.60
2022-11-29T00:07:41.235Z,1.60
2022-11-29T00:12:48.469Z,1.70
2022-11-29T00:17:54.431Z,1.60
2022-11-29T00:23:00.496Z,1.50
2022-11-29T00:28:05.696Z,1.40
2022-11-29T00:33:10.793Z,1.60
2022-11-29T00:38:16.172Z,1.40
2022-11-29T00:43:21.501Z,1.50
2022-11-29T00:48:27.716Z,1.50
2022-11-29T00:53:33.767Z,1.30
2022-11-29T00:58:38.761Z,1.50
2022-11-29T01:03:43.705Z,1.60
2022-11-29T01:08:50.496Z,1.60
2022-11-29T01:13:58.462Z,1.70
2022-11-29T01:19:03.869Z,1.60
2022-11-29T01:24:08.958Z,1.50
2022-11-29T01:29:14.869Z,1.60
2022-11-29T01:34:20.141Z,1.70
2022-11-29T01:39:25.072Z,1.70
2022-11-29T01:44:33.498Z,1.40
2022-11-29T01:49:44.641Z,1.20
2022-11-29T01:54:56.156Z,1.30
2022-11-29T02:00:04.651Z,1.50
2022-11-29T02:05:09.985Z,1.50
2022-11-29T02:10:16.151Z,1.30
2022-11-29T02:15:42.636Z,1.40
2022-11-29T02:21:20.346Z,1.20
2022-11-29T02:26:46.075Z,1.30
2022-11-29T02:32:17.544Z,1.40
2022-11-29T02:37:52.884Z,1.30
2022-11-29T02:43:23.238Z,1.00
2022-11-29T02:49:03.356Z,1.30
2022-11-29T02:54:26.360Z,1.30
2022-11-29T02:59:55.974Z,1.30
2022-11-29T03:05:06.692Z,1.40
2022-11-29T03:10:24.986Z,1.40
2022-11-29T03:15:39.882Z,1.50
2022-11-29T03:21:02.824Z,1.50
2022-11-29T03:26:10.979Z,1.40
2022-11-29T03:31:37.151Z,1.50
2022-11-29T03:37:06.206Z,1.40
2022-11-29T03:42:15.794Z,1.30
2022-11-29T03:47:23.988Z,1.20
2022-11-29T03:52:55.551Z,1.20
2022-11-29T03:58:12.462Z,1.20
2022-11-29T04:03:23.459Z,1.20
2022-11-29T04:08:34.481Z,1.20
2022-11-29T04:13:54.271Z,1.20
2022-11-29T04:19:18.734Z,1.30
2022-11-29T04:24:38.529Z,1.30
2022-11-29T04:29:49.405Z,1.40
2022-11-29T04:35:06.015Z,1.20
2022-11-29T04:40:20.881Z,1.30
2022-11-29T04:45:46.679Z,1.30
2022-11-29T04:51:00.397Z,1.40
2022-11-29T04:56:28.455Z,1.50
2022-11-29T05:01:58.873Z,1.50
2022-11-29T05:07:29.900Z,1.50
2022-11-29T05:12:40.940Z,1.50
2022-11-29T05:17:58.022Z,1.40
2022-11-29T05:23:11.882Z,1.40
2022-11-29T05:28:29.597Z,1.50
2022-11-29T05:34:00.389Z,1.30
2022-11-29T05:39:27.264Z,1.40
2022-11-29T05:44:48.384Z,1.50
2022-11-29T05:50:05.712Z,1.50
2022-11-29T05:55:30.257Z,1.30
2022-11-29T06:00:40.927Z,1.40
2022-11-29T06:05:59.201Z,1.40
2022-11-29T06:11:07.391Z,1.50
2022-11-29T06:16:45.284Z,1.50
2022-11-29T06:22:02.529Z,1.50
2022-11-29T06:27:32.367Z,1.50
2022-11-29T06:32:46.082Z,1.50
2022-11-29T06:37:56.274Z,1.30
2022-11-29T06:43:02.145Z,1.10
2022-11-29T06:48:09.877Z,1.30
2022-11-29T06:53:42.116Z,1.20
2022-11-29T06:58:50.626Z,1.00
2022-11-29T07:04:01.589Z,1.00
2022-11-29T07:09:15.841Z,1.10
2022-11-29T07:14:21.374Z,1.20
2022-11-29T07:19:38.372Z,1.30
2022-11-29T07:25:01.901Z,1.40
2022-11-29T07:30:21.745Z,1.20
2022-11-29T07:35:52.606Z,1.30
2022-11-29T07:41:15.977Z,1.30
2022-11-29T07:46:21.315Z,1.50
2022-11-29T07:51:26.834Z,1.40
2022-11-29T07:56:32.738Z,1.30
2022-11-29T08:01:39.623Z,1.60
2022-11-29T08:06:44.557Z,1.60
2022-11-29T08:11:50.520Z,1.90
2022-11-29T08:16:56.466Z,2.10
2022-11-29T08:22:01.769Z,2.10
2022-11-29T08:27:07.264Z,2.40
2022-11-29T08:32:13.818Z,2.50
2022-11-29T08:37:19.474Z,2.70
2022-11-29T08:42:24.874Z,2.80
2022-11-29T08:47:38.835Z,2.90
2022-11-29T08:53:06.589Z,2.90
2022-11-29T08:58:14.895Z,3.20
2022-11-29T09:03:38.314Z,3.60
2022-11-29T09:08:44.257Z,3.80
2022-11-29T09:13:52.108Z,4.00
2022-11-29T09:18:57.707Z,4.00
2022-11-29T09:24:06.821Z,4.00
2022-11-29T09:29:12.316Z,3.90
2022-11-29T09:34:20.505Z,3.90
2022-11-29T09:39:26.239Z,4.10
2022-11-29T09:44:43.500Z,4.00
2022-11-29T09:49:52.506Z,4.20
2022-11-29T09:55:10.355Z,4.20
2022-11-29T10:00:19.785Z,4.30
2022-11-29T10:05:50.277Z,4.50
2022-11-29T10:10:58.368Z,4.50
2022-11-29T10:16:10.533Z,4.50
2022-11-29T10:21:22.004Z,4.50
2022-11-29T10:26:34.808Z,4.50
2022-11-29T10:31:40.576Z,4.60
2022-11-29T10:36:51.859Z,4.70
2022-11-29T10:42:00.440Z,4.80
2022-11-29T10:47:10.797Z,4.90
2022-11-29T10:52:24.003Z,4.80
2022-11-29T10:57:29.266Z,4.90
2022-11-29T11:02:35.995Z,4.70
2022-11-29T11:07:42.012Z,4.80
2022-11-29T11:12:50.384Z,4.70
2022-11-29T11:18:01.856Z,4.80
2022-11-29T11:23:27.644Z,4.80
2022-11-29T11:28:38.582Z,4.80
2022-11-29T11:33:47.770Z,4.90
2022-11-29T11:38:58.328Z,5.00
2022-11-29T11:44:10.441Z,5.00
2022-11-29T11:49:13.231Z,4.90
2022-11-29T11:54:19.189Z,5.20
2022-11-29T11:59:27.410Z,5.40
2022-11-29T12:04:35.863Z,5.50
2022-11-29T12:09:53.607Z,5.30
2022-11-29T12:15:10.601Z,5.00
2022-11-29T12:20:28.200Z,5.10
2022-11-29T12:25:36.768Z,4.90
2022-11-29T12:30:50.360Z,4.70
2022-11-29T12:36:01.003Z,4.90
2022-11-29T12:41:30.136Z,4.70
2022-11-29T12:46:38.563Z,4.80
2022-11-29T12:51:52.683Z,4.60
2022-11-29T12:57:12.392Z,4.50
2022-11-29T13:02:35.404Z,4.50
2022-11-29T13:08:00.513Z,4.40
2022-11-29T13:13:43.627Z,4.50
2022-11-29T13:19:02.034Z,4.30
2022-11-29T13:24:10.243Z,4.30
2022-11-29T13:29:17.995Z,4.10
2022-11-29T13:34:26.114Z,4.10
2022-11-29T13:39:52.164Z,4.00
2022-11-29T13:45:09.806Z,4.00
2022-11-29T13:50:39.779Z,4.00
2022-11-29T13:55:50.369Z,4.00
2022-11-29T14:01:04.946Z,3.90
2022-11-29T14:06:21.907Z,3.90
2022-11-29T14:11:39.900Z,3.90
2022-11-29T14:16:48.052Z,3.80
2022-11-29T14:22:07.691Z,3.70
2022-11-29T14:27:17.040Z,3.50
2022-11-29T14:32:46.704Z,3.40
2022-11-29T14:38:06.616Z,3.30
2022-11-29T14:43:35.752Z,3.20
2022-11-29T14:48:47.487Z,3.10
2022-11-29T14:54:12.298Z,3.10
2022-11-29T14:59:43.377Z,3.00
2022-11-29T15:04:51.706Z,2.90
2022-11-29T15:09:59.599Z,2.80
2022-11-29T15:15:10.658Z,2.90
2022-11-29T15:20:24.674Z,2.90
2022-11-29T15:25:32.860Z,2.90
2022-11-29T15:30:40.177Z,2.80
2022-11-29T15:35:51.775Z,2.70
2022-11-29T15:40:58.395Z,2.70
2022-11-29T15:46:07.997Z,2.70
2022-11-29T15:51:22.827Z,2.70
2022-11-29T15:56:49.295Z,2.70
2022-11-29T16:01:57.979Z,2.70
2022-11-29T16:07:06.247Z,2.80
2022-11-29T16:12:14.520Z,2.70
2022-11-29T16:17:21.607Z,2.70
2022-11-29T16:22:26.486Z,2.70
2022-11-29T16:27:34.633Z,2.70
2022-11-29T16:32:44.511Z,2.70
2022-11-29T16:37:49.856Z,2.60
2022-11-29T16:43:06.922Z,2.50
2022-11-29T16:48:28.663Z,2.50
2022-11-29T16:53:36.839Z,2.50
2022-11-29T16:59:21.081Z,2.50
2022-11-29T17:03:49.764Z,2.50
2022-11-29T17:08:58.800Z,2.50
2022-11-29T17:14:04.295Z,2.50
2022-11-29T17:19:13.923Z,2.20
2022-11-29T17:24:22.382Z,2.30
2022-11-29T17:29:27.831Z,2.20
2022-11-29T17:34:35.143Z,2.10
2022-11-29T17:39:43.044Z,2.00
2022-11-29T17:44:49.587Z,2.00
2022-11-29T17:49:55.321Z,1.80
2022-11-29T17:55:01.689Z,1.80
2022-11-29T18:00:09.424Z,1.90
2022-11-29T18:05:16.431Z,1.50
2022-11-29T18:10:22.555Z,1.40
2022-11-29T18:15:27.638Z,1.30
2022-11-29T18:20:32.724Z,1.40
2022-11-29T18:25:39.896Z,1.20
2022-11-29T18:30:50.090Z,1.20
2022-11-29T18:35:55.307Z,1.20
2022-11-29T18:41:00.962Z,1.00
2022-11-29T18:46:11.089Z,0.90
2022-11-29T18:51:18.775Z,1.00
2022-11-29T18:56:27.474Z,0.90
2022-11-29T19:01:36.721Z,1.20
2022-11-29T19:06:44.459Z,1.20
2022-11-29T19:11:50.707Z,1.20
2022-11-29T19:16:55.942Z,1.30
2022-11-29T19:22:01.348Z,1.10
2022-11-29T19:27:07.089Z,1.10
2022-11-29T19:32:14.184Z,1.20
2022-11-29T19:37:19.546Z,1.10
2022-11-29T19:42:26.186Z,1.20
2022-11-29T19:47:31.589Z,1.00
2022-11-29T19:52:37.904Z,0.90
2022-11-29T19:57:43.465Z,0.90
2022-11-29T20:02:49.022Z,1.00
2022-11-29T20:07:55.707Z,1.10
2022-11-29T20:13:02.715Z,1.20
2022-11-29T20:18:07.789Z,1.10
2022-11-29T20:23:15.089Z,1.20
2022-11-29T20:28:20.482Z,1.30
2022-11-29T20:33:27.340Z,1.30
2022-11-29T20:38:36.141Z,1.50
2022-11-29T20:43:53.093Z,1.40
2022-11-29T20:49:04.742Z,1.30
2022-11-29T20:54:05.819Z,1.40
2022-11-29T20:59:11.113Z,1.30
2022-11-29T21:04:22.876Z,1.30
2022-11-29T21:09:23.953Z,1.50
2022-11-29T21:14:29.142Z,1.40
2022-11-29T21:19:34.180Z,1.50
2022-11-29T21:24:48.500Z,1.40
2022-11-29T21:29:54.462Z,1.30
2022-11-29T21:35:00.102Z,1.20
2022-11-29T21:40:05.834Z,1.10
2022-11-29T21:45:15.284Z,1.30
2022-11-29T21:50:18.196Z,1.40
2022-11-29T21:55:30.017Z,1.30
2022-11-29T22:00:35.969Z,1.30
2022-11-29T22:05:37.098Z,1.40
2022-11-29T22:10:42.373Z,1.40
2022-11-29T22:15:47.728Z,1.50
2022-11-29T22:20:53.432Z,1.40
2022-11-29T22:26:04.410Z,1.40
2022-11-29T22:31:12.729Z,1.20
2022-11-29T22:36:17.946Z,1.10
2022-11-29T22:41:22.813Z,1.00
2022-11-29T22:46:29.221Z,1.10
2022-11-29T22:51:37.237Z,1.20
2022-11-29T22:56:44.095Z,1.00
2022-11-29T23:01:49.144Z,0.90
2022-11-29T23:06:54.007Z,0.60
2022-11-29T23:11:58.944Z,0.70
2022-11-29T23:17:03.843Z,0.80
2022-11-29T23:22:11.029Z,0.70
2022-11-29T23:27:16.487Z,0.80
2022-11-29T23:32:21.848Z,0.70
2022-11-29T23:37:27.152Z,0.80
2022-11-29T23:42:32.763Z,0.70
2022-11-29T23:47:38.229Z,0.60
2022-11-29T23:52:43.883Z,0.60
2022-11-29T23:57:49.970Z,0.60
